Latest Coastal Weather Observations for Laverton

IDV60701

Issued at 9:11 pm EDT Monday 24 February 2020 (issued every 10 minutes, with the page automatically refreshed every 10 minutes)

About coastal observations | Map of coastal stations | Coastal observations for VIC | Marine services | Other Formats
Station Details ID: 087031 Name: LAVERTON RAAF Lat: -37.86 Lon: 144.76 Height: 20.1 m
Data from the previous 72 hours. | See also: Recent months at Laverton
Date/Time
EDT
Wind Sea
Height
m
Swell Vis
km
Cloud Weather Temp
°C
Press
hPa
Rain since
9am
mm
Dir  Spd
kts
Gust
kts
Height
m
Period
s
Dir
24/09:00pm SW 11 15 - - - - 10 Cloudy Rain 17.9 1018.0 0.2
24/08:30pm SW 11 15 - - - - 10 Cloudy - 19.0 1017.3 0.0
24/08:10pm SW 9 12 - - - - 10 Partly cloudy - 19.5 1016.8 0.0
24/08:00pm SSW 9 11 - - - - 10 Partly cloudy - 19.7 1016.6 0.0
24/07:30pm SSW 7 9 - - - - 10 - - 20.2 1016.2 0.0
24/07:00pm S 9 12 - - - - 10 Partly cloudy - 20.0 1015.8 0.0
24/06:30pm S 9 13 - - - - 10 Partly cloudy - 20.1 1016.0 0.0
24/06:00pm S 10 15 - - - - 10 Cloudy - 20.7 1016.1 0.0
24/05:30pm S 7 10 - - - - 10 Partly cloudy - 21.2 1016.0 0.0
24/05:00pm SSE 6 9 - - - - 10 Partly cloudy - 21.4 1016.0 0.0
24/04:30pm SSE 5 6 - - - - 10 Partly cloudy - 21.1 1016.3 0.0
24/04:00pm S 5 7 - - - - 10 Partly cloudy - 20.8 1016.9 0.0
24/03:30pm SSE 7 9 - - - - 10 Partly cloudy - 21.2 1017.5 0.0
24/03:00pm SE 7 10 - - - - 10 Cloudy - 21.3 1017.7 0.0
24/02:30pm S 8 11 - - - - 10 Partly cloudy - 21.7 1018.2 0.0
24/02:00pm SSE 7 9 - - - - 10 Partly cloudy - 21.0 1018.2 0.0
24/01:30pm S 6 8 - - - - 10 Partly cloudy - 21.3 1018.6 0.0
24/01:00pm S 7 10 - - - - 10 Partly cloudy - 21.5 1018.7 0.0
24/12:30pm S 5 8 - - - - 10 Partly cloudy - 21.6 1018.8 0.0
24/12:00pm S 6 9 - - - - 10 Cloudy - 21.2 1019.0 0.0
24/11:30am S 6 8 - - - - 10 Partly cloudy - 21.6 1018.9 0.0
24/11:00am SE 5 6 - - - - 10 Partly cloudy - 21.5 1018.6 0.0
24/10:30am SE 5 6 - - - - 10 Partly cloudy - 20.8 1018.6 0.0
24/10:00am SE 5 6 - - - - 10 Partly cloudy - 20.3 1018.6 0.0
24/09:30am SE 3 6 - - - - 10 - - 19.4 1018.8 0.0
24/09:00am CALM 0 4 - - - - 10 Mostly clear - 18.3 1018.6 0.0
24/08:30am NNW 3 4 - - - - 10 Partly cloudy - 17.5 1018.7 0.0
24/08:00am NNW 4 5 - - - - 10 Partly cloudy - 17.0 1018.6 0.0
24/07:30am NNW 4 5 - - - - 10 - - 16.4 1018.5 0.0
24/07:00am NW 5 6 - - - - 10 - - 16.0 1018.3 0.0
24/06:30am W 5 6 - - - - 10 - - 15.6 1018.6 0.0
24/06:00am W 5 6 - - - - 10 Mostly clear - 16.1 1018.6 0.0
24/05:30am W 5 5 - - - - 10 Partly cloudy - 15.9 1018.6 0.0
24/05:21am W 4 5 - - - - 10 Partly cloudy - 16.0 1018.6 0.0
24/05:00am CALM 0 0 - - - - 10 Partly cloudy - 16.0 1018.4 0.0
24/04:30am CALM 0 0 - - - - 10 Partly cloudy - 16.3 1018.4 0.0
24/04:00am W 2 4 - - - - 10 Partly cloudy - 16.6 1018.4 0.0
24/03:50am W 3 5 - - - - 10 Partly cloudy - 16.9 1018.7 0.0
24/03:30am W 5 6 - - - - 10 Partly cloudy - 16.7 1018.7 0.0
24/03:00am W 3 4 - - - - 10 - - 17.0 1018.4 0.0
24/02:30am W 5 7 - - - - 10 - - 17.2 1018.8 0.0
24/02:00am WSW 5 6 - - - - 10 - - 17.4 1019.0 0.0
24/01:30am SW 5 7 - - - - 10 - - 17.5 1019.3 0.0
24/01:00am WSW 5 7 - - - - 10 - - 17.8 1019.4 0.0
24/12:30am WSW 5 8 - - - - 10 Partly cloudy - 18.2 1019.4 0.0
24/12:00am SW 7 8 - - - - 10 Cloudy - 18.6 1019.4 0.0
 
Date/Time
EDT
Wind Sea
Height
m
Swell Vis
km
Cloud Weather Temp
°C
Press
hPa
Rain since
9am
mm
Dir  Spd
kts
Gust
kts
Height
m
Period
s
Dir
23/11:30pm WSW 7 10 - - - - 10 Partly cloudy - 19.2 1019.5 0.0
23/11:00pm WSW 5 9 - - - - 10 Partly cloudy - 19.4 1019.3 0.0
23/10:30pm SW 6 8 - - - - 10 Cloudy - 19.8 1019.3 0.0
23/10:00pm SW 6 9 - - - - 10 Partly cloudy - 20.1 1018.9 0.0
23/09:30pm SW 6 10 - - - - 10 Partly cloudy - 20.2 1018.4 0.0
23/09:00pm S 6 8 - - - - 10 Cloudy - 20.8 1017.8 0.0
23/08:30pm S 6 9 - - - - 10 Partly cloudy - 20.9 1017.3 0.0
23/08:00pm S 8 11 - - - - 10 Partly cloudy - 21.3 1016.7 0.0
23/07:30pm S 11 15 - - - - 10 Partly cloudy - 21.9 1016.1 0.0
23/07:00pm SSE 10 15 - - - - 10 Partly cloudy - 22.2 1016.2 0.0
23/06:30pm SSE 11 17 - - - - 10 Partly cloudy - 21.4 1015.7 0.0
23/06:00pm S 13 16 - - - - 10 Cloudy - 21.9 1015.2 0.0
23/05:30pm S 15 20 - - - - 10 Partly cloudy - 23.7 1014.9 0.0
23/05:00pm SSE 10 15 - - - - 10 Partly cloudy - 25.6 1014.6 0.0
23/04:30pm SSE 9 15 - - - - 10 Partly cloudy - 25.4 1014.6 0.0
23/04:00pm SSE 10 13 - - - - 10 Partly cloudy - 25.6 1015.0 0.0
23/03:30pm SSW 9 15 - - - - 10 Partly cloudy - 28.6 1014.9 0.0
23/03:00pm NNW 13 20 - - - - 10 Mostly clear - 32.8 1015.1 0.0
23/02:30pm NNW 14 20 - - - - 10 - - 31.9 1015.7 0.0
23/02:00pm NNW 14 21 - - - - 10 - - 31.4 1016.2 0.0
23/01:30pm SE 4 7 - - - - 10 - - 28.1 1016.6 0.0
23/01:00pm SE 5 13 - - - - 10 - - 27.1 1017.0 0.0
23/12:30pm SE 5 8 - - - - 10 - - 25.1 1017.7 0.0
23/12:00pm SE 5 6 - - - - 10 - - 23.8 1018.2 0.0
23/11:30am E 5 7 - - - - 10 - - 23.9 1018.7 0.0
23/11:00am ENE 4 6 - - - - 10 - - 22.0 1019.1 0.0
23/10:30am NE 3 6 - - - - 10 - - 20.2 1019.7 0.0
23/10:00am NW 3 5 - - - - 10 - - 18.5 1020.1 0.0
23/09:30am WNW 2 4 - - - - 10 - - 17.4 1020.4 0.0
23/09:00am NW 4 5 - - - - 10 - - 15.9 1020.5 0.0
23/08:30am WNW 5 6 - - - - 10 - - 14.4 1020.4 0.0
23/08:00am NW 5 6 - - - - 10 - - 12.9 1020.4 0.0
23/07:30am NW 5 6 - - - - 10 - - 12.0 1020.3 0.0
23/07:00am NW 5 8 - - - - 10 - - 11.9 1020.2 0.0
23/06:30am NNW 5 8 - - - - 10 Partly cloudy - 12.0 1019.8 0.0
23/06:00am NNW 6 8 - - - - 10 - - 11.9 1019.8 0.0
23/05:30am NNW 6 8 - - - - 10 - - 12.0 1019.2 0.0
23/05:00am NW 6 8 - - - - 10 - - 12.0 1019.4 0.0
23/04:30am NW 6 8 - - - - 10 - - 12.0 1019.4 0.0
23/04:00am NW 7 8 - - - - 10 - - 12.2 1019.4 0.0
23/03:30am NW 6 7 - - - - 10 - - 12.2 1019.7 0.0
23/03:00am NW 7 8 - - - - 10 - - 12.5 1019.8 0.0
23/02:30am NW 7 9 - - - - 10 - - 12.8 1020.1 0.0
23/02:00am NW 7 9 - - - - 10 - - 12.8 1020.4 0.0
23/01:30am NW 8 10 - - - - 10 - - 13.0 1020.5 0.0
23/01:00am NW 7 9 - - - - 10 - - 13.2 1020.5 0.0
23/12:30am WNW 7 8 - - - - 10 - - 13.9 1020.6 0.0
23/12:00am WNW 7 9 - - - - 10 - - 14.4 1020.8 0.0
 
Date/Time
EDT
Wind Sea
Height
m
Swell Vis
km
Cloud Weather Temp
°C
Press
hPa
Rain since
9am
mm
Dir  Spd
kts
Gust
kts
Height
m
Period
s
Dir
22/11:30pm W 7 9 - - - - 10 - - 14.6 1021.0 0.0
22/11:00pm W 6 8 - - - - 10 - - 15.5 1021.0 0.0
22/10:30pm WSW 6 8 - - - - 10 - - 16.0 1021.3 0.0
22/10:00pm WSW 6 8 - - - - 10 - - 16.2 1021.3 0.0
22/09:30pm SW 7 9 - - - - 10 - - 16.5 1021.2 0.0
22/09:00pm SSW 8 11 - - - - 10 - - 16.8 1021.1 0.0
22/08:30pm S 9 13 - - - - 10 - - 17.1 1021.0 0.0
22/08:00pm SSW 11 15 - - - - 10 - - 17.4 1021.0 0.0
22/07:30pm S 13 16 - - - - 10 - - 17.8 1021.0 0.0
22/07:00pm S 12 17 - - - - 10 - - 18.5 1021.0 0.0
22/06:30pm S 12 15 - - - - 10 - - 18.9 1021.2 0.0
22/06:00pm S 12 17 - - - - 10 - - 19.4 1021.3 0.0
22/05:30pm S 13 19 - - - - 10 - - 19.4 1021.3 0.0
22/05:00pm S 13 18 - - - - 10 - - 19.4 1021.5 0.0
22/04:30pm SSE 12 17 - - - - 10 - - 20.2 1021.8 0.0
22/04:00pm S 12 17 - - - - 10 - - 20.2 1021.8 0.0
22/03:30pm S 12 17 - - - - 10 - - 20.1 1022.1 0.0
22/03:00pm S 11 16 - - - - 10 - - 20.4 1022.5 0.0
22/02:30pm S 10 18 - - - - 10 - - 20.6 1022.6 0.0
22/02:00pm SSE 9 15 - - - - 10 - - 20.2 1022.7 0.0
22/01:30pm SSE 8 13 - - - - 10 - - 19.8 1022.7 0.0
22/01:00pm SSE 9 13 - - - - 10 - - 19.9 1023.1 0.0
22/12:30pm SSE 9 13 - - - - 10 - - 19.0 1023.6 0.0
22/12:00pm SSE 8 13 - - - - 10 - - 18.9 1023.8 0.0
22/11:30am SE 9 14 - - - - 10 - - 18.8 1023.9 0.0
22/11:00am SSE 9 13 - - - - 10 - - 18.3 1023.9 0.0
22/10:30am ESE 8 11 - - - - 10 - - 18.2 1023.9 0.0
22/10:00am SE 7 12 - - - - 10 - - 17.7 1023.9 0.0
22/09:30am SE 8 12 - - - - 10 - - 17.2 1023.8 0.0
22/09:00am SE 8 12 - - - - 10 - - 16.8 1023.5 0.4
22/08:30am SE 7 11 - - - - 10 - - 16.0 1023.4 0.4
22/08:00am SE 5 8 - - - - 10 - - 15.3 1023.1 0.4
22/07:30am SE 4 5 - - - - 10 - - 13.8 1022.9 0.4
22/07:00am SE 5 7 - - - - 10 - - 13.3 1022.6 0.4
22/06:30am SSE 4 6 - - - - 10 - - 13.3 1022.4 0.4
22/06:00am SE 5 6 - - - - 10 - - 13.5 1022.1 0.4
22/05:30am SE 5 8 - - - - 10 Partly cloudy - 13.9 1021.9 0.4
22/05:00am ESE 6 10 - - - - 10 Partly cloudy - 14.2 1022.0 0.4
22/04:30am ESE 9 12 - - - - 10 Partly cloudy - 14.8 1022.0 0.4
22/04:00am SE 8 12 - - - - 10 Partly cloudy - 14.6 1022.2 0.4
22/03:30am SE 11 14 - - - - 10 Partly cloudy - 14.8 1022.3 0.4
22/03:00am SE 8 13 - - - - 10 Partly cloudy - 14.6 1022.4 0.4
22/02:30am SE 9 14 - - - - 10 Partly cloudy - 14.7 1022.7 0.4
22/02:00am SSE 7 10 - - - - 10 Partly cloudy - 14.9 1022.8 0.4
22/01:30am SSE 8 11 - - - - 10 Partly cloudy - 14.8 1023.1 0.4
22/01:00am SSE 8 12 - - - - 10 Partly cloudy - 14.9 1023.2 0.4
22/12:30am SSE 7 11 - - - - 10 Partly cloudy - 14.7 1023.2 0.4
22/12:00am SE 8 12 - - - - 10 Partly cloudy - 14.6 1023.1 0.4
 
Date/Time
EDT
Wind Sea
Height
m
Swell Vis
km
Cloud Weather Temp
°C
Press
hPa
Rain since
9am
mm
Dir  Spd
kts
Gust
kts
Height
m
Period
s
Dir
21/11:30pm SSE 9 13 - - - - 10 Partly cloudy - 14.8 1023.0 0.4
21/11:00pm SSE 10 14 - - - - 10 Partly cloudy - 15.1 1023.0 0.4
21/10:30pm SSE 9 15 - - - - 10 Partly cloudy - 15.1 1022.9 0.4
21/10:00pm SSE 9 15 - - - - 10 Partly cloudy - 15.3 1022.7 0.4
21/09:30pm SSE 10 15 - - - - 10 Partly cloudy - 15.3 1022.4 0.4

Other formats

Comma delimited format used in spreadsheet applications
http://www.bom.gov.au/fwo/IDV60701/IDV60701.94865.axf

JavaScript Object Notation format (JSON) in row-major order
http://www.bom.gov.au/fwo/IDV60701/IDV60701.94865.json

Data quality

Most of these data are generated automatically and are frequently updated. Quality checks on data are not normally performed. It is possible for incorrect values to appear. Refer to information at About Latest Weather Observations and please check the disclaimer before using these data.